sensor_id;sensor_type;location;lat;lon;timestamp;P1;durP1;ratioP1;P2;durP2;ratioP2
12151;SDS011;6139;51.274;7.128;2022-12-18T00:00:18;5.60;;;4.20;;
12151;SDS011;6139;51.274;7.128;2022-12-18T00:01:21;7.93;;;5.77;;
12151;SDS011;6139;51.274;7.128;2022-12-18T00:02:23;7.77;;;4.43;;
12151;SDS011;6139;51.274;7.128;2022-12-18T00:03:25;7.57;;;5.13;;
12151;SDS011;6139;51.274;7.128;2022-12-18T00:04:26;6.27;;;4.13;;
12151;SDS011;6139;51.274;7.128;2022-12-18T00:05:28;6.33;;;4.13;;
12151;SDS011;6139;51.274;7.128;2022-12-18T00:06:31;7.00;;;4.80;;
12151;SDS011;6139;51.274;7.128;2022-12-18T00:07:34;5.23;;;4.10;;
12151;SDS011;6139;51.274;7.128;2022-12-18T00:08:36;5.47;;;4.00;;
12151;SDS011;6139;51.274;7.128;2022-12-18T00:09:38;7.33;;;3.93;;
12151;SDS011;6139;51.274;7.128;2022-12-18T00:10:38;6.10;;;4.13;;
12151;SDS011;6139;51.274;7.128;2022-12-18T00:11:41;5.23;;;3.73;;
12151;SDS011;6139;51.274;7.128;2022-12-18T00:12:42;5.57;;;3.70;;
12151;SDS011;6139;51.274;7.128;2022-12-18T00:13:44;7.60;;;4.27;;
12151;SDS011;6139;51.274;7.128;2022-12-18T00:14:45;5.83;;;4.10;;
12151;SDS011;6139;51.274;7.128;2022-12-18T00:15:47;6.43;;;4.33;;
12151;SDS011;6139;51.274;7.128;2022-12-18T00:16:48;5.67;;;4.10;;
12151;SDS011;6139;51.274;7.128;2022-12-18T00:17:50;6.20;;;4.83;;
12151;SDS011;6139;51.274;7.128;2022-12-18T00:18:51;5.57;;;4.17;;
12151;SDS011;6139;51.274;7.128;2022-12-18T00:19:54;6.73;;;3.83;;
12151;SDS011;6139;51.274;7.128;2022-12-18T00:20:58;7.87;;;4.10;;
12151;SDS011;6139;51.274;7.128;2022-12-18T00:22:01;7.70;;;4.27;;
12151;SDS011;6139;51.274;7.128;2022-12-18T00:23:03;5.23;;;3.80;;
12151;SDS011;6139;51.274;7.128;2022-12-18T00:24:05;7.17;;;4.10;;
12151;SDS011;6139;51.274;7.128;2022-12-18T00:25:08;7.60;;;4.80;;
12151;SDS011;6139;51.274;7.128;2022-12-18T00:26:10;6.20;;;4.23;;
12151;SDS011;6139;51.274;7.128;2022-12-18T00:27:13;7.83;;;4.57;;
12151;SDS011;6139;51.274;7.128;2022-12-18T00:28:14;5.90;;;3.97;;
12151;SDS011;6139;51.274;7.128;2022-12-18T00:29:16;6.57;;;3.67;;
12151;SDS011;6139;51.274;7.128;2022-12-18T00:30:17;6.97;;;3.70;;
12151;SDS011;6139;51.274;7.128;2022-12-18T00:31:20;8.30;;;4.30;;
12151;SDS011;6139;51.274;7.128;2022-12-18T00:32:22;6.23;;;4.17;;
12151;SDS011;6139;51.274;7.128;2022-12-18T00:33:23;5.87;;;3.80;;
12151;SDS011;6139;51.274;7.128;2022-12-18T00:34:24;5.33;;;3.80;;
12151;SDS011;6139;51.274;7.128;2022-12-18T00:35:26;6.43;;;4.20;;
12151;SDS011;6139;51.274;7.128;2022-12-18T00:36:28;6.80;;;4.07;;
12151;SDS011;6139;51.274;7.128;2022-12-18T00:37:34;5.80;;;4.40;;
12151;SDS011;6139;51.274;7.128;2022-12-18T00:38:35;6.80;;;4.10;;
12151;SDS011;6139;51.274;7.128;2022-12-18T00:39:37;7.60;;;4.03;;
12151;SDS011;6139;51.274;7.128;2022-12-18T00:40:38;4.60;;;3.77;;
12151;SDS011;6139;51.274;7.128;2022-12-18T00:41:40;6.03;;;4.00;;
12151;SDS011;6139;51.274;7.128;2022-12-18T00:43:00;6.73;;;4.33;;
12151;SDS011;6139;51.274;7.128;2022-12-18T00:44:01;5.17;;;3.77;;
12151;SDS011;6139;51.274;7.128;2022-12-18T00:45:02;6.07;;;4.10;;
12151;SDS011;6139;51.274;7.128;2022-12-18T00:46:05;4.97;;;3.80;;
12151;SDS011;6139;51.274;7.128;2022-12-18T00:47:06;5.73;;;3.87;;
12151;SDS011;6139;51.274;7.128;2022-12-18T00:48:08;6.17;;;4.00;;
12151;SDS011;6139;51.274;7.128;2022-12-18T00:49:12;6.33;;;3.73;;
12151;SDS011;6139;51.274;7.128;2022-12-18T00:50:14;6.20;;;4.23;;
12151;SDS011;6139;51.274;7.128;2022-12-18T00:51:15;6.80;;;4.10;;
12151;SDS011;6139;51.274;7.128;2022-12-18T00:52:17;5.00;;;3.60;;
12151;SDS011;6139;51.274;7.128;2022-12-18T00:53:20;6.67;;;4.33;;
12151;SDS011;6139;51.274;7.128;2022-12-18T00:54:22;5.30;;;4.00;;
12151;SDS011;6139;51.274;7.128;2022-12-18T00:55:24;7.33;;;4.37;;
12151;SDS011;6139;51.274;7.128;2022-12-18T00:56:25;5.40;;;3.87;;
12151;SDS011;6139;51.274;7.128;2022-12-18T00:57:27;5.40;;;4.20;;
12151;SDS011;6139;51.274;7.128;2022-12-18T00:58:28;6.50;;;4.40;;
12151;SDS011;6139;51.274;7.128;2022-12-18T00:59:29;5.33;;;3.87;;
12151;SDS011;6139;51.274;7.128;2022-12-18T01:00:31;6.13;;;4.50;;
12151;SDS011;6139;51.274;7.128;2022-12-18T01:01:32;6.00;;;4.50;;
12151;SDS011;6139;51.274;7.128;2022-12-18T01:02:34;4.63;;;3.83;;
12151;SDS011;6139;51.274;7.128;2022-12-18T01:03:36;5.70;;;4.17;;
12151;SDS011;6139;51.274;7.128;2022-12-18T01:04:38;5.00;;;3.63;;
12151;SDS011;6139;51.274;7.128;2022-12-18T01:05:39;5.50;;;3.97;;
12151;SDS011;6139;51.274;7.128;2022-12-18T01:06:41;6.10;;;4.30;;
12151;SDS011;6139;51.274;7.128;2022-12-18T01:07:42;4.80;;;3.53;;
12151;SDS011;6139;51.274;7.128;2022-12-18T01:08:45;7.77;;;4.03;;
12151;SDS011;6139;51.274;7.128;2022-12-18T01:09:46;4.93;;;3.70;;
12151;SDS011;6139;51.274;7.128;2022-12-18T01:10:48;9.47;;;4.53;;
12151;SDS011;6139;51.274;7.128;2022-12-18T01:11:49;5.50;;;4.23;;
12151;SDS011;6139;51.274;7.128;2022-12-18T01:12:51;5.57;;;4.23;;
12151;SDS011;6139;51.274;7.128;2022-12-18T01:13:52;6.27;;;4.07;;
12151;SDS011;6139;51.274;7.128;2022-12-18T01:14:56;6.00;;;4.30;;
12151;SDS011;6139;51.274;7.128;2022-12-18T01:15:57;6.47;;;4.07;;
12151;SDS011;6139;51.274;7.128;2022-12-18T01:16:59;6.63;;;4.33;;
12151;SDS011;6139;51.274;7.128;2022-12-18T01:18:02;5.03;;;4.13;;
12151;SDS011;6139;51.274;7.128;2022-12-18T01:19:04;6.60;;;4.40;;
12151;SDS011;6139;51.274;7.128;2022-12-18T01:20:06;5.23;;;3.73;;
12151;SDS011;6139;51.274;7.128;2022-12-18T01:21:10;6.73;;;4.33;;
12151;SDS011;6139;51.274;7.128;2022-12-18T01:22:12;6.00;;;4.37;;
12151;SDS011;6139;51.274;7.128;2022-12-18T01:23:14;6.63;;;3.90;;
12151;SDS011;6139;51.274;7.128;2022-12-18T01:24:16;6.03;;;4.23;;
12151;SDS011;6139;51.274;7.128;2022-12-18T01:25:18;6.83;;;4.20;;
12151;SDS011;6139;51.274;7.128;2022-12-18T01:26:19;6.50;;;4.13;;
12151;SDS011;6139;51.274;7.128;2022-12-18T01:27:21;5.50;;;4.13;;
12151;SDS011;6139;51.274;7.128;2022-12-18T01:28:22;6.37;;;4.00;;
12151;SDS011;6139;51.274;7.128;2022-12-18T01:29:24;4.23;;;3.80;;
12151;SDS011;6139;51.274;7.128;2022-12-18T01:30:25;8.10;;;4.63;;
12151;SDS011;6139;51.274;7.128;2022-12-18T01:31:28;5.77;;;4.57;;
12151;SDS011;6139;51.274;7.128;2022-12-18T01:32:31;6.27;;;4.30;;
12151;SDS011;6139;51.274;7.128;2022-12-18T01:33:33;8.80;;;4.63;;
12151;SDS011;6139;51.274;7.128;2022-12-18T01:34:35;6.13;;;4.10;;
12151;SDS011;6139;51.274;7.128;2022-12-18T01:35:39;8.20;;;4.43;;
12151;SDS011;6139;51.274;7.128;2022-12-18T01:36:41;7.23;;;4.87;;
12151;SDS011;6139;51.274;7.128;2022-12-18T01:37:44;5.03;;;4.23;;
12151;SDS011;6139;51.274;7.128;2022-12-18T01:38:45;6.17;;;4.40;;
12151;SDS011;6139;51.274;7.128;2022-12-18T01:39:49;6.77;;;4.17;;
12151;SDS011;6139;51.274;7.128;2022-12-18T01:40:53;7.37;;;4.37;;
12151;SDS011;6139;51.274;7.128;2022-12-18T01:41:58;6.30;;;4.40;;
12151;SDS011;6139;51.274;7.128;2022-12-18T01:43:02;5.70;;;4.07;;
12151;SDS011;6139;51.274;7.128;2022-12-18T01:45:38;6.67;;;4.33;;
12151;SDS011;6139;51.274;7.128;2022-12-18T01:46:41;5.93;;;4.27;;
12151;SDS011;6139;51.274;7.128;2022-12-18T01:47:42;6.57;;;4.17;;
12151;SDS011;6139;51.274;7.128;2022-12-18T01:48:47;8.17;;;4.70;;
12151;SDS011;6139;51.274;7.128;2022-12-18T01:49:50;6.43;;;4.20;;
12151;SDS011;6139;51.274;7.128;2022-12-18T01:50:52;6.53;;;4.20;;
12151;SDS011;6139;51.274;7.128;2022-12-18T01:51:54;6.80;;;4.30;;
12151;SDS011;6139;51.274;7.128;2022-12-18T01:52:56;5.27;;;4.37;;
12151;SDS011;6139;51.274;7.128;2022-12-18T01:54:01;7.27;;;4.67;;
12151;SDS011;6139;51.274;7.128;2022-12-18T01:55:04;7.80;;;4.90;;
12151;SDS011;6139;51.274;7.128;2022-12-18T01:56:07;5.60;;;4.40;;
12151;SDS011;6139;51.274;7.128;2022-12-18T01:57:13;5.70;;;4.37;;
12151;SDS011;6139;51.274;7.128;2022-12-18T01:58:14;8.27;;;4.90;;
12151;SDS011;6139;51.274;7.128;2022-12-18T01:59:17;5.60;;;4.07;;
12151;SDS011;6139;51.274;7.128;2022-12-18T02:00:19;5.87;;;3.97;;
12151;SDS011;6139;51.274;7.128;2022-12-18T02:01:22;5.67;;;4.37;;
12151;SDS011;6139;51.274;7.128;2022-12-18T02:02:24;6.07;;;4.40;;
12151;SDS011;6139;51.274;7.128;2022-12-18T02:03:28;6.67;;;4.60;;
12151;SDS011;6139;51.274;7.128;2022-12-18T02:04:29;6.47;;;4.20;;
12151;SDS011;6139;51.274;7.128;2022-12-18T02:05:37;7.37;;;4.90;;
12151;SDS011;6139;51.274;7.128;2022-12-18T02:06:46;6.67;;;4.70;;
12151;SDS011;6139;51.274;7.128;2022-12-18T02:07:54;6.63;;;3.97;;
12151;SDS011;6139;51.274;7.128;2022-12-18T02:09:06;5.93;;;4.03;;
12151;SDS011;6139;51.274;7.128;2022-12-18T02:10:15;6.80;;;4.40;;
12151;SDS011;6139;51.274;7.128;2022-12-18T02:11:23;5.73;;;4.17;;
12151;SDS011;6139;51.274;7.128;2022-12-18T02:12:39;6.37;;;4.40;;
12151;SDS011;6139;51.274;7.128;2022-12-18T02:13:46;6.70;;;4.50;;
12151;SDS011;6139;51.274;7.128;2022-12-18T02:14:55;6.47;;;4.83;;
12151;SDS011;6139;51.274;7.128;2022-12-18T02:16:01;6.77;;;4.77;;
12151;SDS011;6139;51.274;7.128;2022-12-18T02:17:11;6.83;;;4.30;;
12151;SDS011;6139;51.274;7.128;2022-12-18T02:18:18;7.33;;;4.87;;
12151;SDS011;6139;51.274;7.128;2022-12-18T02:19:30;5.90;;;4.10;;
12151;SDS011;6139;51.274;7.128;2022-12-18T02:20:43;8.77;;;4.97;;
12151;SDS011;6139;51.274;7.128;2022-12-18T02:21:51;5.67;;;4.13;;
12151;SDS011;6139;51.274;7.128;2022-12-18T02:23:06;5.80;;;4.20;;
12151;SDS011;6139;51.274;7.128;2022-12-18T02:24:22;6.30;;;4.07;;
12151;SDS011;6139;51.274;7.128;2022-12-18T02:25:36;7.87;;;4.47;;
12151;SDS011;6139;51.274;7.128;2022-12-18T02:26:55;7.37;;;4.47;;
12151;SDS011;6139;51.274;7.128;2022-12-18T02:28:02;6.63;;;4.57;;
12151;SDS011;6139;51.274;7.128;2022-12-18T02:29:08;5.80;;;4.30;;
12151;SDS011;6139;51.274;7.128;2022-12-18T02:30:13;7.03;;;4.57;;
12151;SDS011;6139;51.274;7.128;2022-12-18T02:31:20;6.73;;;4.53;;
12151;SDS011;6139;51.274;7.128;2022-12-18T02:32:25;6.67;;;4.50;;
12151;SDS011;6139;51.274;7.128;2022-12-18T02:33:29;8.50;;;4.30;;
12151;SDS011;6139;51.274;7.128;2022-12-18T02:34:34;7.37;;;4.30;;
12151;SDS011;6139;51.274;7.128;2022-12-18T02:35:42;5.90;;;4.17;;
12151;SDS011;6139;51.274;7.128;2022-12-18T02:36:45;5.40;;;3.67;;
12151;SDS011;6139;51.274;7.128;2022-12-18T02:37:49;4.60;;;3.70;;
12151;SDS011;6139;51.274;7.128;2022-12-18T02:38:51;5.20;;;3.83;;
12151;SDS011;6139;51.274;7.128;2022-12-18T02:39:55;5.90;;;3.90;;
12151;SDS011;6139;51.274;7.128;2022-12-18T02:41:00;6.20;;;4.13;;
12151;SDS011;6139;51.274;7.128;2022-12-18T02:42:04;5.70;;;3.87;;
12151;SDS011;6139;51.274;7.128;2022-12-18T02:43:08;4.30;;;3.90;;
12151;SDS011;6139;51.274;7.128;2022-12-18T02:44:12;7.67;;;4.43;;
12151;SDS011;6139;51.274;7.128;2022-12-18T02:45:15;5.17;;;4.57;;
12151;SDS011;6139;51.274;7.128;2022-12-18T02:46:25;5.80;;;4.07;;
12151;SDS011;6139;51.274;7.128;2022-12-18T02:47:30;6.37;;;3.80;;
12151;SDS011;6139;51.274;7.128;2022-12-18T02:48:35;5.33;;;3.83;;
12151;SDS011;6139;51.274;7.128;2022-12-18T02:49:36;5.57;;;4.03;;
12151;SDS011;6139;51.274;7.128;2022-12-18T02:50:48;5.23;;;3.87;;
12151;SDS011;6139;51.274;7.128;2022-12-18T02:52:01;5.83;;;4.13;;
12151;SDS011;6139;51.274;7.128;2022-12-18T02:53:10;4.10;;;3.53;;
12151;SDS011;6139;51.274;7.128;2022-12-18T02:54:23;5.00;;;3.63;;
12151;SDS011;6139;51.274;7.128;2022-12-18T02:55:37;6.77;;;3.87;;
12151;SDS011;6139;51.274;7.128;2022-12-18T02:56:54;5.87;;;4.07;;
12151;SDS011;6139;51.274;7.128;2022-12-18T02:57:58;6.13;;;4.00;;
12151;SDS011;6139;51.274;7.128;2022-12-18T02:59:09;5.83;;;3.97;;
12151;SDS011;6139;51.274;7.128;2022-12-18T03:00:19;5.07;;;3.70;;
12151;SDS011;6139;51.274;7.128;2022-12-18T03:01:24;6.57;;;4.23;;
12151;SDS011;6139;51.274;7.128;2022-12-18T03:02:41;4.50;;;3.60;;
12151;SDS011;6139;51.274;7.128;2022-12-18T03:03:50;5.07;;;4.07;;
12151;SDS011;6139;51.274;7.128;2022-12-18T03:04:59;5.40;;;3.87;;
12151;SDS011;6139;51.274;7.128;2022-12-18T03:06:07;5.20;;;3.83;;
12151;SDS011;6139;51.274;7.128;2022-12-18T03:07:15;6.20;;;3.97;;
12151;SDS011;6139;51.274;7.128;2022-12-18T03:08:20;6.17;;;4.10;;
12151;SDS011;6139;51.274;7.128;2022-12-18T03:09:27;5.30;;;3.67;;
12151;SDS011;6139;51.274;7.128;2022-12-18T03:10:34;5.33;;;4.00;;
12151;SDS011;6139;51.274;7.128;2022-12-18T03:11:41;5.33;;;4.03;;
12151;SDS011;6139;51.274;7.128;2022-12-18T03:13:05;4.67;;;3.80;;
12151;SDS011;6139;51.274;7.128;2022-12-18T03:14:10;5.90;;;3.83;;
12151;SDS011;6139;51.274;7.128;2022-12-18T03:15:16;7.73;;;4.53;;
12151;SDS011;6139;51.274;7.128;2022-12-18T03:16:27;6.87;;;4.60;;
12151;SDS011;6139;51.274;7.128;2022-12-18T03:17:30;6.70;;;4.40;;
12151;SDS011;6139;51.274;7.128;2022-12-18T03:18:34;5.37;;;3.77;;
12151;SDS011;6139;51.274;7.128;2022-12-18T03:19:38;6.47;;;3.90;;
12151;SDS011;6139;51.274;7.128;2022-12-18T03:20:43;5.00;;;3.90;;
12151;SDS011;6139;51.274;7.128;2022-12-18T03:21:49;5.57;;;3.90;;
12151;SDS011;6139;51.274;7.128;2022-12-18T03:22:55;6.73;;;4.00;;
12151;SDS011;6139;51.274;7.128;2022-12-18T03:24:00;6.27;;;3.70;;
12151;SDS011;6139;51.274;7.128;2022-12-18T03:25:09;5.27;;;3.40;;
12151;SDS011;6139;51.274;7.128;2022-12-18T03:26:14;6.20;;;3.67;;
12151;SDS011;6139;51.274;7.128;2022-12-18T03:27:19;5.30;;;3.87;;
12151;SDS011;6139;51.274;7.128;2022-12-18T03:28:26;5.13;;;4.00;;
12151;SDS011;6139;51.274;7.128;2022-12-18T03:29:35;5.80;;;3.67;;
12151;SDS011;6139;51.274;7.128;2022-12-18T03:30:40;5.13;;;4.20;;
12151;SDS011;6139;51.274;7.128;2022-12-18T03:31:45;5.57;;;3.80;;
12151;SDS011;6139;51.274;7.128;2022-12-18T03:32:52;6.73;;;4.20;;
12151;SDS011;6139;51.274;7.128;2022-12-18T03:34:09;6.53;;;3.80;;
12151;SDS011;6139;51.274;7.128;2022-12-18T03:35:20;5.63;;;4.10;;
12151;SDS011;6139;51.274;7.128;2022-12-18T03:36:25;6.77;;;4.17;;
12151;SDS011;6139;51.274;7.128;2022-12-18T03:37:27;6.80;;;4.30;;
12151;SDS011;6139;51.274;7.128;2022-12-18T03:38:29;4.23;;;3.23;;
12151;SDS011;6139;51.274;7.128;2022-12-18T03:39:32;5.57;;;3.80;;
12151;SDS011;6139;51.274;7.128;2022-12-18T03:40:35;5.10;;;3.67;;
12151;SDS011;6139;51.274;7.128;2022-12-18T03:41:47;6.40;;;3.63;;
12151;SDS011;6139;51.274;7.128;2022-12-18T03:43:00;5.77;;;3.80;;
12151;SDS011;6139;51.274;7.128;2022-12-18T03:44:10;4.90;;;3.80;;
12151;SDS011;6139;51.274;7.128;2022-12-18T03:45:20;4.60;;;3.43;;
12151;SDS011;6139;51.274;7.128;2022-12-18T03:46:26;4.63;;;3.70;;
12151;SDS011;6139;51.274;7.128;2022-12-18T03:47:30;4.83;;;3.57;;
12151;SDS011;6139;51.274;7.128;2022-12-18T03:48:38;5.70;;;3.60;;
12151;SDS011;6139;51.274;7.128;2022-12-18T03:49:48;5.67;;;4.13;;
12151;SDS011;6139;51.274;7.128;2022-12-18T03:50:57;6.47;;;3.80;;
12151;SDS011;6139;51.274;7.128;2022-12-18T03:52:04;4.93;;;3.70;;
12151;SDS011;6139;51.274;7.128;2022-12-18T03:53:18;5.33;;;3.40;;
12151;SDS011;6139;51.274;7.128;2022-12-18T03:54:27;5.30;;;3.60;;
12151;SDS011;6139;51.274;7.128;2022-12-18T03:55:36;5.37;;;4.07;;
12151;SDS011;6139;51.274;7.128;2022-12-18T03:56:42;4.47;;;3.80;;
12151;SDS011;6139;51.274;7.128;2022-12-18T03:57:46;5.53;;;3.80;;
12151;SDS011;6139;51.274;7.128;2022-12-18T03:58:49;5.57;;;4.20;;
12151;SDS011;6139;51.274;7.128;2022-12-18T03:59:57;5.47;;;3.90;;
12151;SDS011;6139;51.274;7.128;2022-12-18T04:01:14;6.53;;;3.77;;
12151;SDS011;6139;51.274;7.128;2022-12-18T04:02:18;5.27;;;3.50;;
12151;SDS011;6139;51.274;7.128;2022-12-18T04:03:21;4.93;;;3.67;;
12151;SDS011;6139;51.274;7.128;2022-12-18T04:04:24;5.17;;;3.90;;
12151;SDS011;6139;51.274;7.128;2022-12-18T04:05:28;5.97;;;3.50;;
12151;SDS011;6139;51.274;7.128;2022-12-18T04:06:34;4.63;;;3.80;;
12151;SDS011;6139;51.274;7.128;2022-12-18T04:07:37;4.73;;;3.40;;
12151;SDS011;6139;51.274;7.128;2022-12-18T04:08:40;4.27;;;3.47;;
12151;SDS011;6139;51.274;7.128;2022-12-18T04:09:45;4.53;;;3.50;;
12151;SDS011;6139;51.274;7.128;2022-12-18T04:10:48;5.00;;;3.60;;
12151;SDS011;6139;51.274;7.128;2022-12-18T04:11:51;4.07;;;3.60;;
12151;SDS011;6139;51.274;7.128;2022-12-18T04:12:55;5.17;;;3.47;;
12151;SDS011;6139;51.274;7.128;2022-12-18T04:13:58;4.93;;;3.37;;
12151;SDS011;6139;51.274;7.128;2022-12-18T04:15:01;5.67;;;4.13;;
12151;SDS011;6139;51.274;7.128;2022-12-18T04:16:03;4.57;;;3.53;;
12151;SDS011;6139;51.274;7.128;2022-12-18T04:17:04;4.53;;;3.47;;
12151;SDS011;6139;51.274;7.128;2022-12-18T04:18:07;4.53;;;3.53;;
12151;SDS011;6139;51.274;7.128;2022-12-18T04:19:15;4.40;;;3.27;;
12151;SDS011;6139;51.274;7.128;2022-12-18T04:20:18;5.40;;;3.40;;
12151;SDS011;6139;51.274;7.128;2022-12-18T04:21:20;4.67;;;3.20;;
12151;SDS011;6139;51.274;7.128;2022-12-18T04:22:23;4.13;;;3.00;;
12151;SDS011;6139;51.274;7.128;2022-12-18T04:23:29;5.27;;;3.57;;
12151;SDS011;6139;51.274;7.128;2022-12-18T04:24:33;3.63;;;3.00;;
12151;SDS011;6139;51.274;7.128;2022-12-18T04:25:43;5.50;;;3.50;;
12151;SDS011;6139;51.274;7.128;2022-12-18T04:26:50;4.70;;;3.43;;
12151;SDS011;6139;51.274;7.128;2022-12-18T04:27:56;5.93;;;3.43;;
12151;SDS011;6139;51.274;7.128;2022-12-18T04:28:58;4.23;;;3.10;;
12151;SDS011;6139;51.274;7.128;2022-12-18T04:30:00;4.47;;;3.73;;
12151;SDS011;6139;51.274;7.128;2022-12-18T04:31:04;5.47;;;3.33;;
12151;SDS011;6139;51.274;7.128;2022-12-18T04:32:05;4.10;;;3.27;;
12151;SDS011;6139;51.274;7.128;2022-12-18T04:33:08;3.60;;;2.80;;
12151;SDS011;6139;51.274;7.128;2022-12-18T04:34:09;4.90;;;3.40;;
12151;SDS011;6139;51.274;7.128;2022-12-18T04:35:17;3.77;;;3.23;;
12151;SDS011;6139;51.274;7.128;2022-12-18T04:36:18;4.10;;;3.37;;
12151;SDS011;6139;51.274;7.128;2022-12-18T04:37:21;5.17;;;3.50;;
12151;SDS011;6139;51.274;7.128;2022-12-18T04:38:23;6.43;;;3.77;;
12151;SDS011;6139;51.274;7.128;2022-12-18T04:39:33;4.57;;;3.07;;
12151;SDS011;6139;51.274;7.128;2022-12-18T04:40:39;4.70;;;3.10;;
12151;SDS011;6139;51.274;7.128;2022-12-18T04:41:48;4.13;;;2.97;;
12151;SDS011;6139;51.274;7.128;2022-12-18T04:42:49;4.20;;;3.03;;
12151;SDS011;6139;51.274;7.128;2022-12-18T04:43:51;4.77;;;3.50;;
12151;SDS011;6139;51.274;7.128;2022-12-18T04:44:52;5.07;;;3.43;;
12151;SDS011;6139;51.274;7.128;2022-12-18T04:46:01;4.73;;;3.37;;
12151;SDS011;6139;51.274;7.128;2022-12-18T04:47:03;5.27;;;3.50;;
12151;SDS011;6139;51.274;7.128;2022-12-18T04:48:05;4.27;;;3.00;;
12151;SDS011;6139;51.274;7.128;2022-12-18T04:49:06;5.10;;;3.30;;
12151;SDS011;6139;51.274;7.128;2022-12-18T04:50:10;4.40;;;3.20;;
12151;SDS011;6139;51.274;7.128;2022-12-18T04:51:11;5.00;;;3.30;;
12151;SDS011;6139;51.274;7.128;2022-12-18T04:52:13;6.37;;;3.43;;
12151;SDS011;6139;51.274;7.128;2022-12-18T04:53:14;4.57;;;3.30;;
12151;SDS011;6139;51.274;7.128;2022-12-18T04:54:16;4.10;;;3.20;;
12151;SDS011;6139;51.274;7.128;2022-12-18T04:55:17;5.57;;;2.90;;
12151;SDS011;6139;51.274;7.128;2022-12-18T04:56:21;4.57;;;3.10;;
12151;SDS011;6139;51.274;7.128;2022-12-18T04:57:22;4.47;;;2.97;;
12151;SDS011;6139;51.274;7.128;2022-12-18T04:58:24;4.20;;;3.00;;
12151;SDS011;6139;51.274;7.128;2022-12-18T04:59:26;3.77;;;3.07;;
12151;SDS011;6139;51.274;7.128;2022-12-18T05:00:28;4.80;;;3.00;;
12151;SDS011;6139;51.274;7.128;2022-12-18T05:01:30;3.30;;;2.57;;
12151;SDS011;6139;51.274;7.128;2022-12-18T05:02:32;4.17;;;3.20;;
12151;SDS011;6139;51.274;7.128;2022-12-18T05:03:34;4.80;;;3.57;;
12151;SDS011;6139;51.274;7.128;2022-12-18T05:04:37;4.17;;;3.40;;
12151;SDS011;6139;51.274;7.128;2022-12-18T05:05:37;4.87;;;3.30;;
12151;SDS011;6139;51.274;7.128;2022-12-18T05:06:39;4.83;;;3.13;;
12151;SDS011;6139;51.274;7.128;2022-12-18T05:07:40;5.80;;;3.30;;
12151;SDS011;6139;51.274;7.128;2022-12-18T05:08:42;3.73;;;3.07;;
12151;SDS011;6139;51.274;7.128;2022-12-18T05:09:43;3.80;;;3.20;;
12151;SDS011;6139;51.274;7.128;2022-12-18T05:10:45;5.17;;;3.23;;
12151;SDS011;6139;51.274;7.128;2022-12-18T05:11:46;4.90;;;3.30;;
12151;SDS011;6139;51.274;7.128;2022-12-18T05:12:48;4.37;;;3.20;;
12151;SDS011;6139;51.274;7.128;2022-12-18T05:13:58;5.03;;;3.20;;
12151;SDS011;6139;51.274;7.128;2022-12-18T05:15:00;3.67;;;2.93;;
12151;SDS011;6139;51.274;7.128;2022-12-18T05:16:01;5.23;;;3.27;;
12151;SDS011;6139;51.274;7.128;2022-12-18T05:17:05;5.13;;;3.73;;
12151;SDS011;6139;51.274;7.128;2022-12-18T05:18:06;5.03;;;3.37;;
12151;SDS011;6139;51.274;7.128;2022-12-18T05:19:08;4.93;;;3.57;;
12151;SDS011;6139;51.274;7.128;2022-12-18T05:20:10;4.60;;;3.33;;
12151;SDS011;6139;51.274;7.128;2022-12-18T05:21:12;3.80;;;2.70;;
12151;SDS011;6139;51.274;7.128;2022-12-18T05:22:13;3.80;;;2.97;;
12151;SDS011;6139;51.274;7.128;2022-12-18T05:23:14;4.00;;;2.87;;
12151;SDS011;6139;51.274;7.128;2022-12-18T05:24:16;3.83;;;3.00;;
12151;SDS011;6139;51.274;7.128;2022-12-18T05:25:17;4.33;;;3.00;;
12151;SDS011;6139;51.274;7.128;2022-12-18T05:26:20;4.30;;;3.13;;
12151;SDS011;6139;51.274;7.128;2022-12-18T05:27:21;4.23;;;3.13;;
12151;SDS011;6139;51.274;7.128;2022-12-18T05:28:23;5.70;;;3.23;;
12151;SDS011;6139;51.274;7.128;2022-12-18T05:29:25;4.43;;;3.40;;
12151;SDS011;6139;51.274;7.128;2022-12-18T05:30:27;4.97;;;3.57;;
12151;SDS011;6139;51.274;7.128;2022-12-18T05:31:28;5.07;;;3.60;;
12151;SDS011;6139;51.274;7.128;2022-12-18T05:32:31;4.63;;;3.43;;
12151;SDS011;6139;51.274;7.128;2022-12-18T05:33:33;4.70;;;3.30;;
12151;SDS011;6139;51.274;7.128;2022-12-18T05:34:36;4.33;;;3.20;;
12151;SDS011;6139;51.274;7.128;2022-12-18T05:35:37;3.93;;;3.10;;
12151;SDS011;6139;51.274;7.128;2022-12-18T05:36:38;4.03;;;3.30;;
12151;SDS011;6139;51.274;7.128;2022-12-18T05:37:39;4.40;;;3.23;;
12151;SDS011;6139;51.274;7.128;2022-12-18T05:38:41;4.43;;;3.20;;
12151;SDS011;6139;51.274;7.128;2022-12-18T05:39:43;4.73;;;3.13;;
12151;SDS011;6139;51.274;7.128;2022-12-18T05:40:45;6.03;;;3.77;;
12151;SDS011;6139;51.274;7.128;2022-12-18T05:41:47;4.60;;;3.27;;
12151;SDS011;6139;51.274;7.128;2022-12-18T05:42:49;4.50;;;3.20;;
12151;SDS011;6139;51.274;7.128;2022-12-18T05:43:49;5.07;;;3.10;;
12151;SDS011;6139;51.274;7.128;2022-12-18T05:44:51;4.57;;;3.10;;
12151;SDS011;6139;51.274;7.128;2022-12-18T05:45:53;4.33;;;2.73;;
12151;SDS011;6139;51.274;7.128;2022-12-18T05:46:55;5.63;;;3.27;;
12151;SDS011;6139;51.274;7.128;2022-12-18T05:47:58;5.80;;;3.03;;
12151;SDS011;6139;51.274;7.128;2022-12-18T05:49:00;4.03;;;2.93;;
12151;SDS011;6139;51.274;7.128;2022-12-18T05:50:01;5.13;;;3.27;;
12151;SDS011;6139;51.274;7.128;2022-12-18T05:51:04;4.70;;;3.10;;
12151;SDS011;6139;51.274;7.128;2022-12-18T05:52:06;4.37;;;3.10;;
12151;SDS011;6139;51.274;7.128;2022-12-18T05:53:08;6.27;;;3.10;;
12151;SDS011;6139;51.274;7.128;2022-12-18T05:54:09;3.87;;;2.90;;
12151;SDS011;6139;51.274;7.128;2022-12-18T05:55:11;5.33;;;3.57;;
12151;SDS011;6139;51.274;7.128;2022-12-18T05:56:12;4.67;;;3.30;;
12151;SDS011;6139;51.274;7.128;2022-12-18T05:57:16;3.83;;;3.17;;
12151;SDS011;6139;51.274;7.128;2022-12-18T05:58:17;6.00;;;3.47;;
12151;SDS011;6139;51.274;7.128;2022-12-18T05:59:19;4.80;;;3.23;;
12151;SDS011;6139;51.274;7.128;2022-12-18T06:00:20;4.93;;;3.10;;
12151;SDS011;6139;51.274;7.128;2022-12-18T06:01:23;4.53;;;3.03;;
12151;SDS011;6139;51.274;7.128;2022-12-18T06:02:26;3.83;;;3.17;;
12151;SDS011;6139;51.274;7.128;2022-12-18T06:03:29;3.40;;;2.63;;
12151;SDS011;6139;51.274;7.128;2022-12-18T06:04:30;4.03;;;3.23;;
12151;SDS011;6139;51.274;7.128;2022-12-18T06:05:34;4.67;;;3.00;;
12151;SDS011;6139;51.274;7.128;2022-12-18T06:06:36;3.87;;;2.90;;
12151;SDS011;6139;51.274;7.128;2022-12-18T06:07:38;5.10;;;3.17;;
12151;SDS011;6139;51.274;7.128;2022-12-18T06:08:39;4.43;;;3.10;;
12151;SDS011;6139;51.274;7.128;2022-12-18T06:09:41;4.47;;;3.20;;
12151;SDS011;6139;51.274;7.128;2022-12-18T06:10:42;5.63;;;3.17;;
12151;SDS011;6139;51.274;7.128;2022-12-18T06:11:51;3.30;;;3.00;;
12151;SDS011;6139;51.274;7.128;2022-12-18T06:12:52;4.47;;;3.27;;
12151;SDS011;6139;51.274;7.128;2022-12-18T06:13:55;5.83;;;3.53;;
12151;SDS011;6139;51.274;7.128;2022-12-18T06:14:56;3.50;;;2.83;;
12151;SDS011;6139;51.274;7.128;2022-12-18T06:16:01;5.83;;;3.57;;
12151;SDS011;6139;51.274;7.128;2022-12-18T06:17:02;4.90;;;3.33;;
12151;SDS011;6139;51.274;7.128;2022-12-18T06:18:04;3.87;;;3.03;;
12151;SDS011;6139;51.274;7.128;2022-12-18T06:19:07;4.37;;;3.17;;
12151;SDS011;6139;51.274;7.128;2022-12-18T06:20:09;4.70;;;2.97;;
12151;SDS011;6139;51.274;7.128;2022-12-18T06:21:10;4.57;;;3.10;;
12151;SDS011;6139;51.274;7.128;2022-12-18T06:22:12;3.93;;;3.03;;
12151;SDS011;6139;51.274;7.128;2022-12-18T06:23:13;4.73;;;3.13;;
12151;SDS011;6139;51.274;7.128;2022-12-18T06:24:15;3.80;;;3.00;;
12151;SDS011;6139;51.274;7.128;2022-12-18T06:25:16;7.23;;;3.83;;
12151;SDS011;6139;51.274;7.128;2022-12-18T06:26:18;3.67;;;3.00;;
12151;SDS011;6139;51.274;7.128;2022-12-18T06:27:19;4.47;;;3.40;;
12151;SDS011;6139;51.274;7.128;2022-12-18T06:28:21;4.50;;;3.13;;
12151;SDS011;6139;51.274;7.128;2022-12-18T06:29:22;4.23;;;3.40;;
12151;SDS011;6139;51.274;7.128;2022-12-18T06:30:24;5.60;;;3.60;;
12151;SDS011;6139;51.274;7.128;2022-12-18T06:31:25;5.27;;;3.10;;
12151;SDS011;6139;51.274;7.128;2022-12-18T06:32:28;6.47;;;3.30;;